createdAt,value
2023-05-24T00:00:14.625Z,3.40
2023-05-24T00:01:14.601Z,3.80
2023-05-24T00:02:14.591Z,3.80
2023-05-24T00:03:14.657Z,3.20
2023-05-24T00:04:14.725Z,3.70
2023-05-24T00:05:14.557Z,3.20
2023-05-24T00:06:14.554Z,3.90
2023-05-24T00:07:14.529Z,3.70
2023-05-24T00:08:14.528Z,3.20
2023-05-24T00:09:14.543Z,3.50
2023-05-24T00:10:14.513Z,3.20
2023-05-24T00:11:14.481Z,3.80
2023-05-24T00:12:14.487Z,3.60
2023-05-24T00:13:14.490Z,3.70
2023-05-24T00:14:14.481Z,3.20
2023-05-24T00:15:14.432Z,3.70
2023-05-24T00:16:14.503Z,3.30
2023-05-24T00:17:14.410Z,3.20
2023-05-24T00:18:14.421Z,3.90
2023-05-24T00:19:14.409Z,3.30
2023-05-24T00:20:14.575Z,3.40
2023-05-24T00:21:14.374Z,3.60
2023-05-24T00:22:14.358Z,3.70
2023-05-24T00:23:14.363Z,4.00
2023-05-24T00:24:14.341Z,3.80
2023-05-24T00:25:14.336Z,3.40
2023-05-24T00:26:14.328Z,3.80
2023-05-24T00:27:14.298Z,3.90
2023-05-24T00:28:14.306Z,2.90
2023-05-24T00:29:14.285Z,4.10
2023-05-24T00:30:14.277Z,4.10
2023-05-24T00:31:14.264Z,3.40
2023-05-24T00:32:14.328Z,3.80
2023-05-24T00:33:14.252Z,3.90
2023-05-24T00:34:14.224Z,4.00
2023-05-24T00:35:14.242Z,3.90
2023-05-24T00:36:14.192Z,3.60
2023-05-24T00:37:14.232Z,3.80
2023-05-24T00:38:14.180Z,3.30
2023-05-24T00:39:14.158Z,3.90
2023-05-24T00:40:14.162Z,3.60
2023-05-24T00:41:14.151Z,3.50
2023-05-24T00:42:14.170Z,3.80
2023-05-24T00:43:14.114Z,3.80
2023-05-24T00:44:14.141Z,3.70
2023-05-24T00:45:14.106Z,4.00
2023-05-24T00:46:14.189Z,3.70
2023-05-24T00:47:14.146Z,3.40
2023-05-24T00:48:14.061Z,3.30
2023-05-24T00:49:14.054Z,3.60
2023-05-24T00:50:14.033Z,4.10
2023-05-24T00:51:14.053Z,3.90
2023-05-24T00:52:14.048Z,3.60
2023-05-24T00:53:14.011Z,4.00
2023-05-24T00:54:14.002Z,3.20
2023-05-24T00:55:13.982Z,3.70
2023-05-24T00:56:14.024Z,3.60
2023-05-24T00:57:13.999Z,4.10
2023-05-24T00:58:13.965Z,3.20
2023-05-24T00:59:13.937Z,3.50
2023-05-24T01:00:13.934Z,4.30
2023-05-24T01:01:13.954Z,4.10
2023-05-24T01:02:13.941Z,3.90
2023-05-24T01:03:14.898Z,4.00
2023-05-24T01:04:13.883Z,3.50
2023-05-24T01:05:13.983Z,3.90
2023-05-24T01:06:13.892Z,3.90
2023-05-24T01:07:13.854Z,3.90
2023-05-24T01:08:13.863Z,4.10
2023-05-24T01:09:13.896Z,3.70
2023-05-24T01:10:14.112Z,3.60
2023-05-24T01:11:13.838Z,3.70
2023-05-24T01:12:13.821Z,3.80
2023-05-24T01:13:13.802Z,3.70
2023-05-24T01:14:13.791Z,3.60
2023-05-24T01:15:13.803Z,3.70
2023-05-24T01:16:13.836Z,3.70
2023-05-24T01:17:14.363Z,3.60
2023-05-24T01:18:13.835Z,4.10
2023-05-24T01:19:13.782Z,3.50
2023-05-24T01:20:13.810Z,3.70
2023-05-24T01:21:13.733Z,3.50
2023-05-24T01:22:13.768Z,3.90
2023-05-24T01:23:13.702Z,3.80
2023-05-24T01:24:13.765Z,3.50
2023-05-24T01:25:13.723Z,3.40
2023-05-24T01:26:13.851Z,3.00
2023-05-24T01:27:13.749Z,3.50
2023-05-24T01:28:13.760Z,3.60
2023-05-24T01:29:13.714Z,3.60
2023-05-24T01:30:13.637Z,3.50
2023-05-24T01:31:13.652Z,4.10
2023-05-24T01:32:13.575Z,4.00
2023-05-24T01:33:14.910Z,3.40
2023-05-24T01:34:13.687Z,3.90
2023-05-24T01:35:13.555Z,3.40
2023-05-24T01:36:13.546Z,3.80
2023-05-24T01:37:13.525Z,3.70
2023-05-24T01:38:13.757Z,3.80
2023-05-24T01:39:13.485Z,3.70
2023-05-24T01:40:13.510Z,3.70
2023-05-24T01:41:13.470Z,3.90
2023-05-24T01:42:13.447Z,3.90
2023-05-24T01:43:13.465Z,3.90
2023-05-24T01:44:13.428Z,4.10
2023-05-24T01:45:13.430Z,4.00
2023-05-24T01:46:13.427Z,3.70
2023-05-24T01:47:13.459Z,3.90
2023-05-24T01:48:13.398Z,3.60
2023-05-24T01:49:13.373Z,3.90
2023-05-24T01:50:13.363Z,4.10
2023-05-24T01:51:13.354Z,3.50
2023-05-24T01:52:13.413Z,4.70
2023-05-24T01:53:13.334Z,4.20
2023-05-24T01:54:13.332Z,4.00
2023-05-24T01:55:13.302Z,4.50
2023-05-24T01:56:13.314Z,3.90
2023-05-24T01:57:13.294Z,4.00
2023-05-24T01:58:13.277Z,3.40
2023-05-24T01:59:13.260Z,4.20
2023-05-24T02:00:13.249Z,3.70
2023-05-24T02:01:13.321Z,3.50
2023-05-24T02:02:13.677Z,3.60
2023-05-24T02:03:13.240Z,4.10
2023-05-24T02:04:13.211Z,4.30
2023-05-24T02:05:13.199Z,3.90
2023-05-24T02:06:13.201Z,4.10
2023-05-24T02:07:13.187Z,4.30
2023-05-24T02:08:13.157Z,4.50
2023-05-24T02:09:13.160Z,4.40
2023-05-24T02:10:13.137Z,4.30
2023-05-24T02:11:13.168Z,4.40
2023-05-24T02:12:13.168Z,4.60
2023-05-24T02:13:13.130Z,4.60
2023-05-24T02:14:13.121Z,4.30
2023-05-24T02:15:13.139Z,4.30
2023-05-24T02:16:13.110Z,5.10
2023-05-24T02:17:13.078Z,4.20
2023-05-24T02:18:13.178Z,4.10
2023-05-24T02:19:13.047Z,4.20
2023-05-24T02:20:13.140Z,4.10
2023-05-24T02:21:13.025Z,4.30
2023-05-24T02:22:12.997Z,4.20
2023-05-24T02:23:12.988Z,4.50
2023-05-24T02:24:12.998Z,4.40
2023-05-24T02:25:13.017Z,4.20
2023-05-24T02:26:12.965Z,4.60
2023-05-24T02:27:12.947Z,4.40
2023-05-24T02:28:12.945Z,4.40
2023-05-24T02:29:12.926Z,4.00
2023-05-24T02:30:12.957Z,4.30
2023-05-24T02:31:12.957Z,4.50
2023-05-24T02:32:12.936Z,4.40
2023-05-24T02:33:12.997Z,4.20
2023-05-24T02:34:12.886Z,4.90
2023-05-24T02:35:12.890Z,4.10
2023-05-24T02:36:12.858Z,4.50
2023-05-24T02:37:12.843Z,4.40
2023-05-24T02:38:12.833Z,4.50
2023-05-24T02:39:12.892Z,4.40
2023-05-24T02:40:12.814Z,4.10
2023-05-24T02:41:12.802Z,4.00
2023-05-24T02:42:12.810Z,4.30
2023-05-24T02:43:12.778Z,4.10
2023-05-24T02:44:12.785Z,4.40
2023-05-24T02:45:12.742Z,4.50
2023-05-24T02:46:12.789Z,4.30
2023-05-24T02:47:12.744Z,4.60
2023-05-24T02:48:12.719Z,4.40
2023-05-24T02:49:12.718Z,4.00
2023-05-24T02:50:12.715Z,4.30
2023-05-24T02:51:12.686Z,4.50
2023-05-24T02:52:12.672Z,4.50
2023-05-24T02:53:12.868Z,4.30
2023-05-24T02:54:12.667Z,4.60
2023-05-24T02:55:12.683Z,4.40
2023-05-24T02:56:12.629Z,5.10
2023-05-24T02:57:12.614Z,4.00
2023-05-24T02:58:12.949Z,4.00
2023-05-24T02:59:12.601Z,4.50
2023-05-24T03:00:12.586Z,4.10
2023-05-24T03:01:12.621Z,3.60
2023-05-24T03:02:12.557Z,4.10
2023-05-24T03:03:12.655Z,4.70
2023-05-24T03:04:12.594Z,4.90
2023-05-24T03:05:12.522Z,4.00
2023-05-24T03:06:12.524Z,4.50
2023-05-24T03:07:12.560Z,4.20
2023-05-24T03:08:13.001Z,4.50
2023-05-24T03:09:12.498Z,4.40
2023-05-24T03:10:15.027Z,3.80
2023-05-24T03:11:12.462Z,4.40
2023-05-24T03:12:12.457Z,4.20
2023-05-24T03:13:12.441Z,4.10
2023-05-24T03:14:12.430Z,4.30
2023-05-24T03:15:12.424Z,4.50
2023-05-24T03:16:12.451Z,4.80
2023-05-24T03:17:12.413Z,3.90
2023-05-24T03:18:12.378Z,4.10
2023-05-24T03:19:12.374Z,3.80
2023-05-24T03:20:12.394Z,3.70
2023-05-24T03:21:12.366Z,4.40
2023-05-24T03:22:12.417Z,4.50
2023-05-24T03:23:12.310Z,3.80
2023-05-24T03:24:12.306Z,3.50
2023-05-24T03:25:12.299Z,3.60
2023-05-24T03:26:12.315Z,4.00
2023-05-24T03:27:12.276Z,4.00
2023-05-24T03:28:12.261Z,3.60
2023-05-24T03:29:12.279Z,4.30
2023-05-24T03:30:12.259Z,4.30
2023-05-24T03:31:12.267Z,3.90
2023-05-24T03:32:12.222Z,4.20
2023-05-24T03:33:12.213Z,3.70
2023-05-24T03:34:12.203Z,4.30
2023-05-24T03:35:12.263Z,3.90
2023-05-24T03:36:12.182Z,5.00
2023-05-24T03:37:12.169Z,4.10
2023-05-24T03:38:12.164Z,4.00
2023-05-24T03:39:12.136Z,4.40
2023-05-24T03:40:12.154Z,4.20
2023-05-24T03:41:12.140Z,4.20
2023-05-24T03:42:12.104Z,4.30
2023-05-24T03:43:12.109Z,4.30
2023-05-24T03:44:12.081Z,4.50
2023-05-24T03:45:12.102Z,4.00
2023-05-24T03:46:12.083Z,4.00
2023-05-24T03:47:12.041Z,3.90
2023-05-24T03:48:12.030Z,4.00
2023-05-24T03:49:12.045Z,3.80
2023-05-24T03:50:12.033Z,4.50
2023-05-24T03:51:12.010Z,4.60
2023-05-24T03:52:12.000Z,4.40
2023-05-24T03:53:11.967Z,3.60
2023-05-24T03:54:12.012Z,3.60
2023-05-24T03:55:11.957Z,4.00
2023-05-24T03:56:11.953Z,3.80
2023-05-24T03:57:11.933Z,4.30
2023-05-24T03:58:11.916Z,3.60
2023-05-24T03:59:12.318Z,3.60
2023-05-24T04:00:11.891Z,4.00
2023-05-24T04:01:18.827Z,4.10
2023-05-24T04:02:12.934Z,3.80
2023-05-24T04:03:12.058Z,4.60
2023-05-24T04:04:11.917Z,3.80
2023-05-24T04:05:11.852Z,3.70
2023-05-24T04:06:11.842Z,4.20
2023-05-24T04:07:11.857Z,3.90
2023-05-24T04:08:11.814Z,4.30
2023-05-24T04:09:11.794Z,4.10
2023-05-24T04:10:11.800Z,3.90
2023-05-24T04:11:11.771Z,4.80
2023-05-24T04:12:11.795Z,4.40
2023-05-24T04:13:11.781Z,4.40
2023-05-24T04:14:11.743Z,4.00
2023-05-24T04:15:11.740Z,4.60
2023-05-24T04:16:11.712Z,4.80
2023-05-24T04:17:11.796Z,4.90
2023-05-24T04:18:11.780Z,5.10
2023-05-24T04:19:11.696Z,5.00
2023-05-24T04:20:11.760Z,4.50
2023-05-24T04:21:11.678Z,4.70
2023-05-24T04:22:11.664Z,5.10
2023-05-24T04:23:11.646Z,4.50
2023-05-24T04:24:11.632Z,4.60
2023-05-24T04:25:11.642Z,5.10
2023-05-24T04:26:11.623Z,4.60
2023-05-24T04:27:11.616Z,5.40
2023-05-24T04:28:11.587Z,4.50
2023-05-24T04:29:11.581Z,5.00
2023-05-24T04:30:11.555Z,4.30
2023-05-24T04:31:11.577Z,4.60
2023-05-24T04:32:11.549Z,4.30
2023-05-24T04:33:11.626Z,4.30
2023-05-24T04:34:11.527Z,4.00
2023-05-24T04:35:11.507Z,4.50
2023-05-24T04:36:11.697Z,4.30
2023-05-24T04:37:11.487Z,4.70
2023-05-24T04:38:11.467Z,4.30
2023-05-24T04:39:11.502Z,5.60
2023-05-24T04:40:11.451Z,4.70
2023-05-24T04:41:11.489Z,4.40
2023-05-24T04:42:11.447Z,4.40
2023-05-24T04:43:11.425Z,4.90
2023-05-24T04:44:11.413Z,4.50
2023-05-24T04:45:11.415Z,4.70
2023-05-24T04:46:11.536Z,4.30
2023-05-24T04:47:11.369Z,4.60
2023-05-24T04:48:11.364Z,4.50
2023-05-24T04:49:11.346Z,4.60
2023-05-24T04:50:11.641Z,4.40
2023-05-24T04:51:11.340Z,4.60
2023-05-24T04:52:11.357Z,4.40
2023-05-24T04:53:11.317Z,4.60
2023-05-24T04:54:11.311Z,4.80
2023-05-24T04:55:11.316Z,5.00
2023-05-24T04:56:11.285Z,4.50
2023-05-24T04:57:11.289Z,4.50
2023-05-24T04:58:11.268Z,4.90
2023-05-24T04:59:11.261Z,4.40
2023-05-24T05:00:11.410Z,5.00
2023-05-24T05:01:11.229Z,5.00
2023-05-24T05:02:11.300Z,4.80
2023-05-24T05:03:11.275Z,5.10
2023-05-24T05:04:11.262Z,5.10
2023-05-24T05:05:11.179Z,5.20
2023-05-24T05:06:11.155Z,5.30
2023-05-24T05:07:11.152Z,4.70
2023-05-24T05:08:11.173Z,4.60
2023-05-24T05:09:11.142Z,4.90
2023-05-24T05:10:11.114Z,5.30
2023-05-24T05:11:11.105Z,5.60
2023-05-24T05:12:11.105Z,4.50
2023-05-24T05:13:11.082Z,4.90
2023-05-24T05:14:11.365Z,5.50
2023-05-24T05:15:11.056Z,5.10
2023-05-24T05:16:11.094Z,5.40
2023-05-24T05:17:11.036Z,5.20
2023-05-24T05:18:11.115Z,5.50
2023-05-24T05:19:11.016Z,5.30
2023-05-24T05:20:11.028Z,5.10
2023-05-24T05:21:10.984Z,5.50
2023-05-24T05:22:10.997Z,4.80
2023-05-24T05:23:10.971Z,4.70
2023-05-24T05:24:10.974Z,5.30
2023-05-24T05:25:10.941Z,5.30
2023-05-24T05:26:10.923Z,4.80
2023-05-24T05:27:10.928Z,5.20
2023-05-24T05:28:10.912Z,5.10
2023-05-24T05:29:10.883Z,5.40
2023-05-24T05:30:10.893Z,5.20
2023-05-24T05:31:10.870Z,5.00
2023-05-24T05:32:10.889Z,5.20
2023-05-24T05:33:10.982Z,4.80
2023-05-24T05:34:10.837Z,5.60
2023-05-24T05:35:10.825Z,5.60
2023-05-24T05:36:10.814Z,5.10
2023-05-24T05:37:10.841Z,5.90
2023-05-24T05:38:10.807Z,5.10
2023-05-24T05:39:10.809Z,5.70
2023-05-24T05:40:10.769Z,5.50
2023-05-24T05:41:10.764Z,5.30
2023-05-24T05:42:10.759Z,5.80
2023-05-24T05:43:10.730Z,5.00
2023-05-24T05:44:10.722Z,5.70
2023-05-24T05:45:10.711Z,5.60
2023-05-24T05:46:10.745Z,5.30
2023-05-24T05:47:10.699Z,5.10
2023-05-24T05:48:10.705Z,6.20
2023-05-24T05:49:10.665Z,5.20
2023-05-24T05:50:10.673Z,4.90
2023-05-24T05:51:10.666Z,5.00
2023-05-24T05:52:10.949Z,5.30
2023-05-24T05:53:10.620Z,5.70
2023-05-24T05:54:10.607Z,6.10
2023-05-24T05:55:10.607Z,6.00
2023-05-24T05:56:10.604Z,5.60
2023-05-24T05:57:10.688Z,5.50
2023-05-24T05:58:10.570Z,5.80
2023-05-24T05:59:10.556Z,5.80
2023-05-24T06:00:10.534Z,5.70
2023-05-24T06:01:10.600Z,5.90
2023-05-24T06:02:10.642Z,6.00
2023-05-24T06:03:10.608Z,5.60
2023-05-24T06:04:10.669Z,5.50
2023-05-24T06:05:10.556Z,5.10
2023-05-24T06:06:10.481Z,6.30
2023-05-24T06:07:10.475Z,5.30
2023-05-24T06:08:10.450Z,5.40
2023-05-24T06:09:10.477Z,6.20
2023-05-24T06:10:10.437Z,5.70
2023-05-24T06:11:10.420Z,5.70
2023-05-24T06:12:10.394Z,5.40
2023-05-24T06:13:10.387Z,5.80
2023-05-24T06:14:10.373Z,6.00
2023-05-24T06:15:10.393Z,5.90
2023-05-24T06:16:10.385Z,6.60
2023-05-24T06:17:10.340Z,5.50
2023-05-24T06:18:10.352Z,6.00
2023-05-24T06:19:10.327Z,5.80
2023-05-24T06:20:10.380Z,6.10
2023-05-24T06:21:10.309Z,5.90
2023-05-24T06:22:10.295Z,6.00
2023-05-24T06:23:10.292Z,5.90
2023-05-24T06:24:10.473Z,5.80
2023-05-24T06:25:10.255Z,5.60
2023-05-24T06:26:10.238Z,6.00
2023-05-24T06:27:10.231Z,5.60
2023-05-24T06:28:10.222Z,6.50
2023-05-24T06:29:10.231Z,5.60
2023-05-24T06:30:10.296Z,5.50
2023-05-24T06:31:10.223Z,5.10
2023-05-24T06:32:10.182Z,5.70
2023-05-24T06:33:10.182Z,6.20
2023-05-24T06:34:10.185Z,5.60
2023-05-24T06:35:10.149Z,6.50
2023-05-24T06:36:10.135Z,5.60
2023-05-24T06:37:10.119Z,5.50
2023-05-24T06:38:10.140Z,5.80
2023-05-24T06:39:10.109Z,5.40
2023-05-24T06:40:10.101Z,5.60
2023-05-24T06:41:10.082Z,5.00
2023-05-24T06:42:10.070Z,6.40
2023-05-24T06:43:10.063Z,6.10
2023-05-24T06:44:10.034Z,5.80
2023-05-24T06:45:10.033Z,6.10
2023-05-24T06:46:10.023Z,5.30
2023-05-24T06:47:10.065Z,6.40
2023-05-24T06:48:10.173Z,6.10
2023-05-24T06:49:10.042Z,5.70
2023-05-24T06:50:09.994Z,6.20
2023-05-24T06:51:09.973Z,5.90
2023-05-24T06:52:09.968Z,6.60
2023-05-24T06:53:09.947Z,6.20
2023-05-24T06:54:09.930Z,5.40
2023-05-24T06:55:09.923Z,6.30
2023-05-24T06:56:09.906Z,5.70
2023-05-24T06:57:09.912Z,4.90
2023-05-24T06:58:09.877Z,5.60
2023-05-24T06:59:09.883Z,6.30
2023-05-24T07:00:09.863Z,5.70
2023-05-24T07:01:09.891Z,6.50
2023-05-24T07:02:09.858Z,6.70
2023-05-24T07:03:09.855Z,5.70
2023-05-24T07:04:09.861Z,6.10
2023-05-24T07:05:09.804Z,5.80
2023-05-24T07:06:10.097Z,6.20
2023-05-24T07:07:09.779Z,6.60
2023-05-24T07:08:09.771Z,5.30
2023-05-24T07:09:09.762Z,5.90
2023-05-24T07:10:09.746Z,6.10
2023-05-24T07:11:09.816Z,5.70
2023-05-24T07:12:09.713Z,5.90
2023-05-24T07:13:09.703Z,6.10
2023-05-24T07:14:09.703Z,5.80
2023-05-24T07:15:09.743Z,5.90
2023-05-24T07:16:09.708Z,6.30
2023-05-24T07:17:09.928Z,5.20
2023-05-24T07:18:09.708Z,5.90
2023-05-24T07:19:09.674Z,5.70
2023-05-24T07:20:09.686Z,6.20
2023-05-24T07:21:09.623Z,5.40
2023-05-24T07:22:09.631Z,6.30
2023-05-24T07:23:09.631Z,5.80
2023-05-24T07:24:09.586Z,5.70
2023-05-24T07:25:09.907Z,6.00
2023-05-24T07:26:09.562Z,6.20
2023-05-24T07:27:09.556Z,5.60
2023-05-24T07:28:09.543Z,5.90
2023-05-24T07:29:09.530Z,5.50
2023-05-24T07:30:19.619Z,5.40
2023-05-24T07:31:10.500Z,5.40
2023-05-24T07:32:09.540Z,5.50
2023-05-24T07:33:09.507Z,5.20
2023-05-24T07:34:09.492Z,5.80
2023-05-24T07:35:09.478Z,6.40
2023-05-24T07:36:09.465Z,5.70
2023-05-24T07:37:09.438Z,5.60
2023-05-24T07:38:09.463Z,5.60
2023-05-24T07:39:09.436Z,5.60
2023-05-24T07:40:09.403Z,5.40
2023-05-24T07:41:09.388Z,5.60
2023-05-24T07:42:09.380Z,5.40
2023-05-24T07:43:09.373Z,5.00
2023-05-24T07:44:09.388Z,5.20
2023-05-24T07:45:09.348Z,4.80
2023-05-24T07:46:09.369Z,5.30
2023-05-24T07:47:09.330Z,5.40
2023-05-24T07:48:09.379Z,5.40
2023-05-24T07:49:09.321Z,5.20
2023-05-24T07:50:09.287Z,4.90
2023-05-24T07:51:09.286Z,5.80
2023-05-24T07:52:09.268Z,4.90
2023-05-24T07:53:09.283Z,5.10
2023-05-24T07:54:09.264Z,4.90
2023-05-24T07:55:09.240Z,4.50
2023-05-24T07:56:09.226Z,5.40
2023-05-24T07:57:09.550Z,4.50
2023-05-24T07:58:09.223Z,5.40
2023-05-24T07:59:09.186Z,4.90
2023-05-24T08:00:09.216Z,5.10
2023-05-24T08:01:09.167Z,4.60
2023-05-24T08:02:09.168Z,5.20
2023-05-24T08:03:09.252Z,4.70
2023-05-24T08:04:09.164Z,5.20
2023-05-24T08:05:09.137Z,4.80
2023-05-24T08:06:09.132Z,5.40
2023-05-24T08:07:10.993Z,5.80
2023-05-24T08:08:09.085Z,5.80
2023-05-24T08:09:09.071Z,5.40
2023-05-24T08:10:09.090Z,4.20
2023-05-24T08:11:09.061Z,5.20
2023-05-24T08:12:09.056Z,4.70
2023-05-24T08:13:09.055Z,4.80
2023-05-24T08:14:09.020Z,4.60
2023-05-24T08:15:09.015Z,4.80
2023-05-24T08:16:09.027Z,5.00
2023-05-24T08:17:09.002Z,4.40
2023-05-24T08:18:09.013Z,4.80
2023-05-24T08:19:08.965Z,4.20
2023-05-24T08:20:09.058Z,4.60
2023-05-24T08:21:08.978Z,4.70
2023-05-24T08:22:08.928Z,4.00
2023-05-24T08:23:08.922Z,4.40
2023-05-24T08:24:09.665Z,4.90
2023-05-24T08:25:08.892Z,4.20
2023-05-24T08:26:08.939Z,4.60
2023-05-24T08:27:08.887Z,4.80
2023-05-24T08:28:08.927Z,4.60
2023-05-24T08:29:08.868Z,5.10
2023-05-24T08:30:08.874Z,4.70
2023-05-24T08:31:08.848Z,3.90
2023-05-24T08:32:08.932Z,3.90
2023-05-24T08:33:08.837Z,4.10
2023-05-24T08:34:08.794Z,4.50
2023-05-24T08:35:20.227Z,4.10
2023-05-24T08:36:10.004Z,4.10
2023-05-24T08:37:08.810Z,4.00
2023-05-24T08:38:08.763Z,3.90
2023-05-24T08:39:08.733Z,4.00
2023-05-24T08:40:08.739Z,4.40
2023-05-24T08:41:08.714Z,3.90
2023-05-24T08:42:10.157Z,4.40
2023-05-24T08:43:08.687Z,4.40
2023-05-24T08:44:08.685Z,4.20
2023-05-24T08:45:08.698Z,4.00
2023-05-24T08:46:08.709Z,4.20
2023-05-24T08:47:08.643Z,4.10
2023-05-24T08:48:08.696Z,4.20
2023-05-24T08:49:08.681Z,4.10
2023-05-24T08:50:08.764Z,4.30
2023-05-24T08:51:08.600Z,3.80
2023-05-24T08:52:08.612Z,4.20
2023-05-24T08:53:08.580Z,4.40
2023-05-24T08:54:08.583Z,4.40
2023-05-24T08:55:08.571Z,4.40
2023-05-24T08:56:08.622Z,3.90
2023-05-24T08:57:08.574Z,4.00
2023-05-24T08:58:08.555Z,4.40
2023-05-24T08:59:08.531Z,3.80
2023-05-24T09:00:08.511Z,3.60
2023-05-24T09:01:08.509Z,3.70
2023-05-24T09:02:08.543Z,3.70
2023-05-24T09:03:08.535Z,4.50
2023-05-24T09:04:08.557Z,3.80
2023-05-24T09:05:08.450Z,4.10
2023-05-24T09:06:08.442Z,4.40
2023-05-24T09:07:08.421Z,4.10
2023-05-24T09:08:08.432Z,3.50
2023-05-24T09:09:08.405Z,3.50
2023-05-24T09:10:08.389Z,3.30
2023-05-24T09:11:08.383Z,3.80
2023-05-24T09:12:08.358Z,3.80
2023-05-24T09:13:08.363Z,4.20
2023-05-24T09:14:08.404Z,4.20
2023-05-24T09:15:08.652Z,4.10
2023-05-24T09:16:08.453Z,3.90
2023-05-24T09:17:08.321Z,3.80
2023-05-24T09:18:08.394Z,3.90
2023-05-24T09:19:08.301Z,4.10
2023-05-24T09:20:08.304Z,3.80
2023-05-24T09:21:08.262Z,3.80
2023-05-24T09:22:08.270Z,3.60
2023-05-24T09:23:08.239Z,4.20
2023-05-24T09:24:08.240Z,4.50
2023-05-24T09:25:08.352Z,3.80
2023-05-24T09:26:08.229Z,3.90
2023-05-24T09:27:08.203Z,3.60
2023-05-24T09:28:08.188Z,3.40
2023-05-24T09:29:08.183Z,3.90
2023-05-24T09:30:08.196Z,3.50
2023-05-24T09:31:08.949Z,3.30
2023-05-24T09:32:08.160Z,3.40
2023-05-24T09:33:08.206Z,3.60
2023-05-24T09:34:08.127Z,3.40
2023-05-24T09:35:08.100Z,3.70
2023-05-24T09:36:08.115Z,3.60
2023-05-24T09:37:08.077Z,3.50
2023-05-24T09:38:08.101Z,3.50
2023-05-24T09:39:08.064Z,3.30
2023-05-24T09:40:08.211Z,3.50
2023-05-24T09:41:08.060Z,3.20
2023-05-24T09:42:08.040Z,3.20
2023-05-24T09:43:08.011Z,3.10
2023-05-24T09:44:07.997Z,3.60
2023-05-24T09:45:08.009Z,3.60
2023-05-24T09:46:08.245Z,3.40
2023-05-24T09:47:08.055Z,3.00
2023-05-24T09:48:08.010Z,3.20
2023-05-24T09:49:07.972Z,3.40
2023-05-24T09:50:07.953Z,3.40
2023-05-24T09:51:07.947Z,3.20
2023-05-24T09:52:07.981Z,3.20
2023-05-24T09:53:07.899Z,3.30
2023-05-24T09:54:07.908Z,3.60
2023-05-24T09:55:07.901Z,3.30
2023-05-24T09:56:07.865Z,3.70
2023-05-24T09:57:07.851Z,2.80
2023-05-24T09:58:07.853Z,3.30
2023-05-24T09:59:07.852Z,3.50
2023-05-24T10:00:07.827Z,3.40
2023-05-24T10:01:07.976Z,3.10
2023-05-24T10:02:07.823Z,3.40
2023-05-24T10:03:08.101Z,3.00
2023-05-24T10:04:09.900Z,3.10
2023-05-24T10:05:07.765Z,3.10
2023-05-24T10:06:08.054Z,3.00
2023-05-24T10:07:07.749Z,3.40
2023-05-24T10:08:07.728Z,3.40
2023-05-24T10:09:07.791Z,3.10
2023-05-24T10:10:07.849Z,3.60
2023-05-24T10:11:07.708Z,3.10
2023-05-24T10:12:07.706Z,2.90
2023-05-24T10:13:07.700Z,3.40
2023-05-24T10:14:07.663Z,3.30
2023-05-24T10:15:07.662Z,3.20
2023-05-24T10:16:07.642Z,4.30
2023-05-24T10:17:07.781Z,3.10
2023-05-24T10:18:08.576Z,3.50
2023-05-24T10:19:07.680Z,2.70
2023-05-24T10:20:07.723Z,2.90
2023-05-24T10:21:07.603Z,3.00
2023-05-24T10:22:07.588Z,2.90
2023-05-24T10:23:07.596Z,3.30
2023-05-24T10:24:08.970Z,3.10
2023-05-24T10:25:07.541Z,3.10
2023-05-24T10:26:07.542Z,3.20
2023-05-24T10:27:07.532Z,3.20
2023-05-24T10:28:07.526Z,3.30
2023-05-24T10:29:07.505Z,3.00
2023-05-24T10:30:09.442Z,3.10
2023-05-24T10:31:07.563Z,3.40
2023-05-24T10:32:07.474Z,4.10
2023-05-24T10:33:07.494Z,2.80
2023-05-24T10:34:08.921Z,3.20
2023-05-24T10:35:07.428Z,3.30
2023-05-24T10:36:09.688Z,3.70
2023-05-24T10:37:07.416Z,2.60
2023-05-24T10:38:07.408Z,2.90
2023-05-24T10:39:07.382Z,3.00
2023-05-24T10:40:07.378Z,3.10
2023-05-24T10:41:08.021Z,3.20
2023-05-24T10:42:09.610Z,3.60
2023-05-24T10:43:07.344Z,3.00
2023-05-24T10:44:10.198Z,3.20
2023-05-24T10:45:07.313Z,2.80
2023-05-24T10:46:07.498Z,3.50
2023-05-24T10:47:07.290Z,3.00
2023-05-24T10:48:07.452Z,3.10
2023-05-24T10:49:07.295Z,3.10
2023-05-24T10:50:07.428Z,3.20
2023-05-24T10:51:07.268Z,2.80
2023-05-24T10:52:07.229Z,2.60
2023-05-24T10:53:07.223Z,2.80
2023-05-24T10:54:08.982Z,2.90
2023-05-24T10:55:07.224Z,3.20
2023-05-24T10:56:07.185Z,2.70
2023-05-24T10:57:07.196Z,3.00
2023-05-24T10:58:07.168Z,3.20
2023-05-24T10:59:07.154Z,3.40
2023-05-24T11:00:08.483Z,2.60
2023-05-24T11:01:07.133Z,3.20
2023-05-24T11:02:07.184Z,3.20
2023-05-24T11:03:07.188Z,2.90
2023-05-24T11:04:07.107Z,2.80
2023-05-24T11:05:07.141Z,3.50
2023-05-24T11:06:07.178Z,3.10
2023-05-24T11:07:07.064Z,3.50
2023-05-24T11:08:07.074Z,3.60
2023-05-24T11:09:07.055Z,3.00
2023-05-24T11:10:07.045Z,3.10
2023-05-24T11:11:22.426Z,3.20
2023-05-24T11:12:08.075Z,3.50
2023-05-24T11:13:06.990Z,2.90
2023-05-24T11:14:06.996Z,3.20
2023-05-24T11:15:06.977Z,3.90
2023-05-24T11:16:06.990Z,3.50
2023-05-24T11:17:06.977Z,3.40
2023-05-24T11:18:07.027Z,3.10
2023-05-24T11:19:06.948Z,2.70
2023-05-24T11:20:06.939Z,2.80
2023-05-24T11:21:06.911Z,2.70
2023-05-24T11:22:06.951Z,3.00
2023-05-24T11:23:06.908Z,3.30
2023-05-24T11:24:06.871Z,3.00
2023-05-24T11:25:06.873Z,3.20
2023-05-24T11:26:06.863Z,2.50
2023-05-24T11:27:06.857Z,3.20
2023-05-24T11:28:06.870Z,2.60
2023-05-24T11:29:06.815Z,2.80
2023-05-24T11:30:06.815Z,2.60
2023-05-24T11:31:06.834Z,2.80
2023-05-24T11:32:06.835Z,2.50
2023-05-24T11:33:06.828Z,3.30
2023-05-24T11:34:06.767Z,3.00
2023-05-24T11:35:06.756Z,3.30
2023-05-24T11:36:06.740Z,3.00
2023-05-24T11:37:06.746Z,2.50
2023-05-24T11:38:06.758Z,3.30
2023-05-24T11:39:06.710Z,2.90
2023-05-24T11:40:06.695Z,3.00
2023-05-24T11:41:06.690Z,3.10
2023-05-24T11:42:06.724Z,3.30
2023-05-24T11:43:06.672Z,2.90
2023-05-24T11:44:08.415Z,3.60
2023-05-24T11:45:06.636Z,2.90
2023-05-24T11:46:07.343Z,2.90
2023-05-24T11:47:06.606Z,3.50
2023-05-24T11:48:06.660Z,3.00
2023-05-24T11:49:06.595Z,3.10
2023-05-24T11:50:06.576Z,2.80
2023-05-24T11:51:06.598Z,2.80
2023-05-24T11:52:06.578Z,3.00
2023-05-24T11:53:06.554Z,3.00
2023-05-24T11:54:06.557Z,2.80
2023-05-24T11:55:06.536Z,2.70
2023-05-24T11:56:06.546Z,3.10
2023-05-24T11:57:06.538Z,3.00
2023-05-24T11:58:06.490Z,2.70
2023-05-24T11:59:06.485Z,2.90
2023-05-24T12:00:06.496Z,2.40
2023-05-24T12:01:06.465Z,3.10
2023-05-24T12:02:06.549Z,2.90
2023-05-24T12:03:06.472Z,2.90
2023-05-24T12:04:06.529Z,3.00
2023-05-24T12:05:06.605Z,3.10
2023-05-24T12:06:06.400Z,2.90
2023-05-24T12:07:06.406Z,3.00
2023-05-24T12:08:06.372Z,2.90
2023-05-24T12:09:07.409Z,2.80
2023-05-24T12:10:06.654Z,2.90
2023-05-24T12:11:06.344Z,2.80
2023-05-24T12:12:06.334Z,2.40
2023-05-24T12:13:06.319Z,2.50
2023-05-24T12:14:06.324Z,2.10
2023-05-24T12:15:06.308Z,2.30
2023-05-24T12:16:06.334Z,2.60
2023-05-24T12:17:06.277Z,2.50
2023-05-24T12:18:06.298Z,2.90
2023-05-24T12:19:14.059Z,2.70
2023-05-24T12:20:07.261Z,2.40
2023-05-24T12:21:06.232Z,2.50
2023-05-24T12:22:06.541Z,2.30
2023-05-24T12:23:06.246Z,2.40
2023-05-24T12:24:06.210Z,2.20
2023-05-24T12:25:06.205Z,2.20
2023-05-24T12:26:06.212Z,2.40
2023-05-24T12:27:06.158Z,2.60
2023-05-24T12:28:06.169Z,2.00
2023-05-24T12:29:06.146Z,2.50
2023-05-24T12:30:06.129Z,2.60
2023-05-24T12:31:06.134Z,2.60
2023-05-24T12:32:06.104Z,2.30
2023-05-24T12:33:06.146Z,2.20
2023-05-24T12:34:06.076Z,2.30
2023-05-24T12:35:06.073Z,2.10
2023-05-24T12:36:06.064Z,2.00
2023-05-24T12:37:06.072Z,2.60
2023-05-24T12:38:06.045Z,2.40
2023-05-24T12:39:06.055Z,2.10
2023-05-24T12:40:06.012Z,1.90
2023-05-24T12:41:12.422Z,2.00
2023-05-24T12:42:07.021Z,1.80
2023-05-24T12:43:06.014Z,2.10
2023-05-24T12:44:05.985Z,2.00
2023-05-24T12:45:05.961Z,1.90
2023-05-24T12:46:05.941Z,1.80
2023-05-24T12:47:05.978Z,1.70
2023-05-24T12:48:06.914Z,1.60
2023-05-24T12:49:05.919Z,1.80
2023-05-24T12:50:06.016Z,2.00
2023-05-24T12:51:05.900Z,1.60
2023-05-24T12:52:06.691Z,1.90
2023-05-24T12:53:05.865Z,2.00
2023-05-24T12:54:05.877Z,2.00
2023-05-24T12:55:05.843Z,1.60
2023-05-24T12:56:05.878Z,1.90
2023-05-24T12:57:05.822Z,1.70
2023-05-24T12:58:05.834Z,1.40
2023-05-24T12:59:05.800Z,1.90
2023-05-24T13:00:05.822Z,1.40
2023-05-24T13:01:06.380Z,1.40
2023-05-24T13:02:05.782Z,1.70
2023-05-24T13:03:05.791Z,1.70
2023-05-24T13:04:05.740Z,1.70
2023-05-24T13:05:05.795Z,1.60
2023-05-24T13:06:05.734Z,1.60
2023-05-24T13:07:05.703Z,1.40
2023-05-24T13:08:05.707Z,2.10
2023-05-24T13:09:05.685Z,2.10
2023-05-24T13:10:05.716Z,1.70
2023-05-24T13:11:05.660Z,2.10
2023-05-24T13:12:05.659Z,1.70
2023-05-24T13:13:05.638Z,1.60
2023-05-24T13:14:05.711Z,1.40
2023-05-24T13:15:05.647Z,1.50
2023-05-24T13:16:05.611Z,1.90
2023-05-24T13:17:05.669Z,1.40
2023-05-24T13:18:05.676Z,1.70